Thornton, Colorado
Current Conditions -  °F | °C
As of 2:55 PM on Monday 26 Jan 2015 (Local Time) from KBJC Reporting Station
Clear Clear  
Wind Chill: 72°   Ceiling: Unl
Heat Index: 72°   Visibility: 60mi
Dew Point: 19°   Wind: 5mph
Humidity: 14%   Direction: 180°S
Pressure: 30.22"   Gusts: NA
Location:  39.87°N, 104.98°W
Report Text: KBJC 262155Z 18004KT 60SM SKC 22/M07 A3022
Loading
Personal Weather Stations






























Interactive Weather Map New forecast layout! Learn more

10-Day Weather Forecast

Advertisements
Track Severe Weather on mobile